createdAt,value
2023-03-12T00:00:02.021Z,90054.06
2023-03-12T00:02:30.721Z,90057.44
2023-03-12T00:04:58.460Z,90058.19
2023-03-12T00:07:25.092Z,90053.69
2023-03-12T00:09:51.791Z,90049.59
2023-03-12T00:12:18.425Z,90050.38
2023-03-12T00:14:45.064Z,90045.50
2023-03-12T00:17:11.816Z,90048.47
2023-03-12T00:19:38.499Z,90052.22
2023-03-12T00:22:05.283Z,90050.75
2023-03-12T00:24:32.025Z,90053.69
2023-03-12T00:26:58.657Z,90045.47
2023-03-12T00:29:25.401Z,90042.09
2023-03-12T00:31:52.321Z,90045.81
2023-03-12T00:34:18.976Z,90048.41
2023-03-12T00:36:45.659Z,90045.38
2023-03-12T00:39:12.612Z,90046.84
2023-03-12T00:41:39.245Z,90053.19
2023-03-12T00:44:06.832Z,90052.09
2023-03-12T00:46:33.834Z,90052.09
2023-03-12T00:49:00.551Z,90054.66
2023-03-12T00:51:27.271Z,90050.56
2023-03-12T00:53:55.995Z,90055.69
2023-03-12T00:56:22.768Z,90052.78
2023-03-12T00:58:49.391Z,90054.28
2023-03-12T01:01:16.163Z,90059.53
2023-03-12T01:03:42.928Z,90058.78
2023-03-12T01:06:09.719Z,90060.22
2023-03-12T01:08:36.819Z,90056.84
2023-03-12T01:11:03.891Z,90064.59
2023-03-12T01:13:30.994Z,90066.47
2023-03-12T01:15:57.841Z,90071.69
2023-03-12T01:18:24.600Z,90069.06
2023-03-12T01:20:51.440Z,90067.16
2023-03-12T01:23:18.203Z,90066.41
2023-03-12T01:25:44.916Z,90071.25
2023-03-12T01:28:11.586Z,90073.09
2023-03-12T01:30:38.372Z,90080.16
2023-03-12T01:33:05.227Z,90082.44
2023-03-12T01:35:36.604Z,90075.00
2023-03-12T01:38:03.454Z,90084.66
2023-03-12T01:40:34.804Z,90078.63
2023-03-12T01:43:22.159Z,90090.56
2023-03-12T01:46:10.676Z,90095.41
2023-03-12T01:48:44.504Z,90089.84
2023-03-12T01:51:13.730Z,90087.94
2023-03-12T01:53:41.957Z,90089.00
2023-03-12T01:56:09.961Z,90082.31
2023-03-12T01:58:38.678Z,90087.81
2023-03-12T02:01:05.586Z,90079.72
2023-03-12T02:03:33.370Z,90080.44
2023-03-12T02:06:08.912Z,90089.66
2023-03-12T02:08:41.990Z,90075.88
2023-03-12T02:11:10.076Z,90084.06
2023-03-12T02:13:37.511Z,90083.97
2023-03-12T02:16:04.707Z,90086.63
2023-03-12T02:18:31.557Z,90074.97
2023-03-12T02:21:08.202Z,90089.56
2023-03-12T02:23:38.458Z,90087.31
2023-03-12T02:26:17.668Z,90072.41
2023-03-12T02:28:46.012Z,90081.25
2023-03-12T02:31:15.393Z,90074.22
2023-03-12T02:33:42.233Z,90093.16
2023-03-12T02:36:09.442Z,90090.06
2023-03-12T02:38:44.159Z,90094.59
2023-03-12T02:41:16.310Z,90107.97
2023-03-12T02:43:45.928Z,90113.97
2023-03-12T02:46:13.818Z,90119.16
2023-03-12T02:48:40.668Z,90116.56
2023-03-12T02:51:11.096Z,90121.63
2023-03-12T02:53:37.853Z,90123.97
2023-03-12T02:56:04.911Z,90129.78
2023-03-12T02:58:31.639Z,90111.03
2023-03-12T03:00:58.642Z,90108.09
2023-03-12T03:03:25.343Z,90104.47
2023-03-12T03:05:52.320Z,90117.28
2023-03-12T03:08:19.114Z,90119.09
2023-03-12T03:10:46.035Z,90126.78
2023-03-12T03:13:12.781Z,90134.59
2023-03-12T03:15:40.046Z,90136.19
2023-03-12T03:18:06.923Z,90138.38
2023-03-12T03:20:33.704Z,90143.66
2023-03-12T03:23:00.664Z,90146.00
2023-03-12T03:25:27.392Z,90149.75
2023-03-12T03:27:54.312Z,90149.47
2023-03-12T03:30:21.399Z,90128.19
2023-03-12T03:32:50.026Z,90161.03
2023-03-12T03:35:17.478Z,90161.06
2023-03-12T03:37:44.152Z,90142.06
2023-03-12T03:40:12.343Z,90156.56
2023-03-12T03:42:40.371Z,90158.72
2023-03-12T03:45:08.310Z,90161.63
2023-03-12T03:47:35.493Z,90163.88
2023-03-12T03:50:02.516Z,90164.94
2023-03-12T03:52:29.193Z,90163.09
2023-03-12T03:54:57.108Z,90171.56
2023-03-12T03:57:23.989Z,90169.72
2023-03-12T03:59:50.747Z,90171.81
2023-03-12T04:02:18.618Z,90179.69
2023-03-12T04:04:45.346Z,90170.44
2023-03-12T04:07:12.348Z,90184.66
2023-03-12T04:09:39.063Z,90176.28
2023-03-12T04:12:05.982Z,90192.56
2023-03-12T04:14:32.656Z,90189.22
2023-03-12T04:16:59.301Z,90195.66
2023-03-12T04:19:26.119Z,90196.19
2023-03-12T04:21:52.760Z,90200.75
2023-03-12T04:24:20.492Z,90196.72
2023-03-12T04:26:47.186Z,90214.75
2023-03-12T04:29:14.084Z,90216.19
2023-03-12T04:31:41.170Z,90213.97
2023-03-12T04:34:07.949Z,90230.16
2023-03-12T04:36:34.777Z,90240.66
2023-03-12T04:39:01.749Z,90237.63
2023-03-12T04:41:28.630Z,90250.19
2023-03-12T04:43:55.436Z,90271.50
2023-03-12T04:46:22.205Z,90273.00
2023-03-12T04:48:49.127Z,90278.00
2023-03-12T04:51:16.130Z,90275.69
2023-03-12T04:53:42.894Z,90287.50
2023-03-12T04:56:09.870Z,90285.19
2023-03-12T04:58:36.705Z,90291.19
2023-03-12T05:01:04.062Z,90292.75
2023-03-12T05:03:31.259Z,90308.72
2023-03-12T05:05:58.084Z,90298.63
2023-03-12T05:08:24.856Z,90301.91
2023-03-12T05:10:51.751Z,90298.63
2023-03-12T05:13:21.527Z,90301.75
2023-03-12T05:15:50.887Z,90314.09
2023-03-12T05:18:18.054Z,90314.53
2023-03-12T05:20:44.745Z,90323.25
2023-03-12T05:23:11.436Z,90315.03
2023-03-12T05:25:41.609Z,90314.94
2023-03-12T05:28:08.300Z,90308.78
2023-03-12T05:30:35.049Z,90325.75
2023-03-12T05:33:01.800Z,90342.53
2023-03-12T05:35:28.479Z,90344.09
2023-03-12T05:37:55.145Z,90345.31
2023-03-12T05:40:21.991Z,90344.25
2023-03-12T05:42:48.637Z,90347.22
2023-03-12T05:45:15.339Z,90345.03
2023-03-12T05:47:43.059Z,90344.34
2023-03-12T05:50:11.394Z,90354.56
2023-03-12T05:52:38.091Z,90354.91
2023-03-12T05:55:05.240Z,90358.88
2023-03-12T05:57:31.895Z,90370.53
2023-03-12T05:59:58.656Z,90369.53
2023-03-12T06:02:25.687Z,90374.13
2023-03-12T06:04:52.338Z,90385.13
2023-03-12T06:07:20.004Z,90392.94
2023-03-12T06:09:46.712Z,90385.66
2023-03-12T06:12:13.374Z,90393.19
2023-03-12T06:14:40.059Z,90398.13
2023-03-12T06:17:06.780Z,90409.31
2023-03-12T06:19:33.548Z,90417.19
2023-03-12T06:22:00.531Z,90390.09
2023-03-12T06:24:27.281Z,90376.69
2023-03-12T06:26:54.051Z,90402.06
2023-03-12T06:29:20.724Z,90411.75
2023-03-12T06:31:48.376Z,90413.53
2023-03-12T06:34:16.887Z,90416.78
2023-03-12T06:36:44.166Z,90411.84
2023-03-12T06:39:10.852Z,90421.84
2023-03-12T06:41:37.613Z,90427.28
2023-03-12T06:44:09.551Z,90430.50
2023-03-12T06:46:37.094Z,90433.63
2023-03-12T06:49:04.171Z,90437.44
2023-03-12T06:51:30.866Z,90428.56
2023-03-12T06:53:57.626Z,90444.59
2023-03-12T06:56:24.316Z,90405.69
2023-03-12T06:58:51.000Z,90435.31
2023-03-12T07:01:17.718Z,90451.31
2023-03-12T07:03:44.478Z,90456.69
2023-03-12T07:06:19.344Z,90452.56
2023-03-12T07:08:46.497Z,90470.13
2023-03-12T07:11:13.927Z,90473.22
2023-03-12T07:13:41.616Z,90460.91
2023-03-12T07:16:08.818Z,90473.81
2023-03-12T07:18:35.522Z,90470.41
2023-03-12T07:21:02.302Z,90472.69
2023-03-12T07:23:29.098Z,90474.75
2023-03-12T07:25:56.036Z,90475.09
2023-03-12T07:28:22.994Z,90474.69
2023-03-12T07:30:52.852Z,90480.78
2023-03-12T07:33:21.626Z,90476.59
2023-03-12T07:35:51.470Z,90478.81
2023-03-12T07:38:18.535Z,90486.16
2023-03-12T07:40:54.108Z,90485.91
2023-03-12T07:43:21.860Z,90482.03
2023-03-12T07:45:49.684Z,90477.75
2023-03-12T07:48:19.595Z,90472.69
2023-03-12T07:50:46.398Z,90477.53
2023-03-12T07:53:13.155Z,90473.28
2023-03-12T07:55:40.028Z,90475.75
2023-03-12T07:58:06.956Z,90474.81
2023-03-12T08:00:33.703Z,90466.81
2023-03-12T08:03:00.585Z,90466.81
2023-03-12T08:05:35.399Z,90469.13
2023-03-12T08:08:02.311Z,90475.59
2023-03-12T08:10:29.193Z,90478.44
2023-03-12T08:12:56.219Z,90461.25
2023-03-12T08:15:23.027Z,90462.44
2023-03-12T08:17:49.740Z,90479.00
2023-03-12T08:20:17.622Z,90469.53
2023-03-12T08:22:45.460Z,90467.84
2023-03-12T08:25:12.546Z,90462.34
2023-03-12T08:27:39.460Z,90443.34
2023-03-12T08:30:07.040Z,90460.56
2023-03-12T08:32:33.984Z,90473.38
2023-03-12T08:35:00.960Z,90474.13
2023-03-12T08:37:27.615Z,90466.84
2023-03-12T08:39:54.683Z,90474.03
2023-03-12T08:42:21.488Z,90470.09
2023-03-12T08:44:48.192Z,90470.13
2023-03-12T08:47:15.187Z,90460.13
2023-03-12T08:49:42.046Z,90463.56
2023-03-12T08:52:08.732Z,90465.06
2023-03-12T08:54:35.575Z,90461.78
2023-03-12T08:57:03.417Z,90459.81
2023-03-12T08:59:30.176Z,90467.47
2023-03-12T09:01:57.914Z,90458.97
2023-03-12T09:04:24.722Z,90449.22
2023-03-12T09:06:52.541Z,90458.69
2023-03-12T09:09:19.230Z,90460.50
2023-03-12T09:11:45.946Z,90457.78
2023-03-12T09:14:57.454Z,90466.00
2023-03-12T09:16:59.455Z,90462.09
2023-03-12T09:19:26.358Z,90465.13
2023-03-12T09:21:53.073Z,90455.78
2023-03-12T09:24:20.004Z,90454.00
2023-03-12T09:26:47.689Z,90455.25
2023-03-12T09:29:14.360Z,90457.19
2023-03-12T09:31:41.324Z,90449.81
2023-03-12T09:34:08.027Z,90456.81
2023-03-12T09:36:34.952Z,90467.53
2023-03-12T09:39:03.082Z,90459.75
2023-03-12T09:41:34.587Z,90457.84
2023-03-12T09:44:32.705Z,90455.44
2023-03-12T09:47:05.404Z,90462.84
2023-03-12T09:49:40.703Z,90462.88
2023-03-12T09:52:44.550Z,90464.09
2023-03-12T09:55:21.494Z,90461.63
2023-03-12T09:57:51.357Z,90462.59
2023-03-12T10:00:22.847Z,90463.69
2023-03-12T10:03:14.092Z,90465.13
2023-03-12T10:05:44.359Z,90470.13
2023-03-12T10:08:35.308Z,90471.03
2023-03-12T10:11:22.286Z,90470.22
2023-03-12T10:13:58.077Z,90470.50
2023-03-12T10:16:49.333Z,90455.06
2023-03-12T10:19:34.049Z,90467.50
2023-03-12T10:22:33.119Z,90470.72
2023-03-12T10:25:05.635Z,90472.25
2023-03-12T10:27:37.198Z,90468.13
2023-03-12T10:30:16.630Z,90470.44
2023-03-12T10:32:53.867Z,90466.84
2023-03-12T10:35:23.280Z,90462.94
2023-03-12T10:38:04.876Z,90458.66
2023-03-12T10:40:36.681Z,90467.56
2023-03-12T10:43:04.953Z,90457.09
2023-03-12T10:45:56.694Z,90454.91
2023-03-12T10:48:25.551Z,90451.50
2023-03-12T10:51:12.565Z,90450.53
2023-03-12T10:53:44.724Z,90445.66
2023-03-12T10:56:14.441Z,90444.94
2023-03-12T10:58:42.361Z,90448.19
2023-03-12T11:01:30.432Z,90442.59
2023-03-12T11:04:14.851Z,90441.78
2023-03-12T11:06:41.660Z,90420.28
2023-03-12T11:09:20.721Z,90442.94
2023-03-12T11:11:48.717Z,90444.31
2023-03-12T11:14:21.662Z,90421.06
2023-03-12T11:16:49.622Z,90441.00
2023-03-12T11:19:31.569Z,90443.16
2023-03-12T11:22:03.403Z,90442.19
2023-03-12T11:24:30.633Z,90429.50
2023-03-12T11:27:07.667Z,90430.00
2023-03-12T11:29:49.234Z,90436.50
2023-03-12T11:32:32.605Z,90423.72
2023-03-12T11:34:59.835Z,90433.63
2023-03-12T11:37:51.421Z,90431.63
2023-03-12T11:40:29.370Z,90425.31
2023-03-12T11:43:42.819Z,90430.25
2023-03-12T11:46:36.855Z,90424.88
2023-03-12T11:49:21.580Z,90435.78
2023-03-12T11:52:03.563Z,90442.63
2023-03-12T11:54:43.848Z,90439.81
2023-03-12T11:57:34.445Z,90441.09
2023-03-12T12:00:12.856Z,90449.59
2023-03-12T12:02:54.738Z,90455.16
2023-03-12T12:05:58.827Z,90459.88
2023-03-12T12:08:49.258Z,90457.06
2023-03-12T12:11:36.064Z,90466.59
2023-03-12T12:14:11.472Z,90476.13
2023-03-12T12:16:41.122Z,90483.78
2023-03-12T12:19:20.228Z,90481.13
2023-03-12T12:21:59.694Z,90479.84
2023-03-12T12:24:38.552Z,90481.63
2023-03-12T12:27:24.526Z,90491.94
2023-03-12T12:30:31.884Z,90486.06
2023-03-12T12:33:23.940Z,90492.91
2023-03-12T12:35:51.063Z,90502.53
2023-03-12T12:38:17.679Z,90500.25
2023-03-12T12:40:51.561Z,90509.00
2023-03-12T12:43:36.806Z,90522.44
2023-03-12T12:46:16.135Z,90523.16
2023-03-12T12:48:53.636Z,90536.16
2023-03-12T12:51:25.630Z,90537.97
2023-03-12T12:54:16.876Z,90551.03
2023-03-12T12:56:58.041Z,90558.25
2023-03-12T12:59:36.818Z,90549.97
2023-03-12T13:02:13.425Z,90560.06
2023-03-12T13:04:41.240Z,90567.19
2023-03-12T13:07:13.658Z,90567.97
2023-03-12T13:09:44.212Z,90582.53
2023-03-12T13:12:36.284Z,90579.91
2023-03-12T13:15:28.501Z,90590.00
2023-03-12T13:17:55.193Z,90581.75
2023-03-12T13:20:32.813Z,90593.00
2023-03-12T13:23:09.495Z,90584.78
2023-03-12T13:25:39.172Z,90595.63
2023-03-12T13:28:32.534Z,90603.81
2023-03-12T13:31:01.179Z,90602.72
2023-03-12T13:34:17.324Z,90608.38
2023-03-12T13:36:46.428Z,90609.06
2023-03-12T13:39:16.120Z,90606.84
2023-03-12T13:41:45.809Z,90616.53
2023-03-12T13:44:27.914Z,90614.97
2023-03-12T13:47:05.916Z,90626.56
2023-03-12T13:49:43.801Z,90618.97
2023-03-12T13:52:19.720Z,90619.31
2023-03-12T13:55:14.166Z,90631.94
2023-03-12T13:57:44.932Z,90629.06
2023-03-12T14:00:24.479Z,90627.91
2023-03-12T14:02:59.918Z,90626.00
2023-03-12T14:05:29.126Z,90640.16
2023-03-12T14:07:56.162Z,90637.25
2023-03-12T14:11:00.450Z,90645.50
2023-03-12T14:13:39.224Z,90644.66
2023-03-12T14:16:11.005Z,90640.09
2023-03-12T14:18:39.415Z,90635.63
2023-03-12T14:21:15.999Z,90638.81
2023-03-12T14:23:58.407Z,90648.13
2023-03-12T14:26:33.107Z,90656.69
2023-03-12T14:29:10.811Z,90649.97
2023-03-12T14:31:38.854Z,90652.41
2023-03-12T14:34:21.114Z,90656.16
2023-03-12T14:36:53.443Z,90663.91
2023-03-12T14:39:28.109Z,90671.25
2023-03-12T14:42:05.129Z,90660.84
2023-03-12T14:44:34.125Z,90673.19
2023-03-12T14:47:07.664Z,90676.81
2023-03-12T14:49:43.016Z,90686.91
2023-03-12T14:52:15.130Z,90657.59
2023-03-12T14:54:54.118Z,90674.88
2023-03-12T14:57:24.667Z,90688.28
2023-03-12T14:59:59.267Z,90685.41
2023-03-12T15:02:28.259Z,90698.03
2023-03-12T15:05:02.211Z,90705.97
2023-03-12T15:07:36.126Z,90701.56
2023-03-12T15:10:07.938Z,90710.72
2023-03-12T15:12:38.036Z,90715.72
2023-03-12T15:15:11.974Z,90727.59
2023-03-12T15:17:38.890Z,90727.00
2023-03-12T15:20:09.782Z,90717.78
2023-03-12T15:22:37.790Z,90727.16
2023-03-12T15:25:26.950Z,90727.88
2023-03-12T15:28:15.714Z,90739.72
2023-03-12T15:30:44.051Z,90749.06
2023-03-12T15:33:31.048Z,90747.22
2023-03-12T15:36:17.686Z,90754.97
2023-03-12T15:38:55.514Z,90758.19
2023-03-12T15:41:35.680Z,90752.28
2023-03-12T15:44:02.968Z,90734.06
2023-03-12T15:46:29.944Z,90767.84
2023-03-12T15:48:59.266Z,90766.78
2023-03-12T15:51:36.901Z,90757.25
2023-03-12T15:54:25.146Z,90767.72
2023-03-12T15:56:51.943Z,90779.38
2023-03-12T15:59:26.020Z,90791.09
2023-03-12T16:01:56.326Z,90791.19
2023-03-12T16:04:24.037Z,90796.69
2023-03-12T16:06:54.624Z,90809.16
2023-03-12T16:09:26.574Z,90803.06
2023-03-12T16:11:55.877Z,90817.53
2023-03-12T16:14:35.257Z,90819.69
2023-03-12T16:17:03.087Z,90819.88
2023-03-12T16:19:33.759Z,90829.97
2023-03-12T16:22:05.575Z,90833.34
2023-03-12T16:24:32.217Z,90843.47
2023-03-12T16:26:59.359Z,90846.69
2023-03-12T16:29:35.784Z,90804.84
2023-03-12T16:32:02.936Z,90830.13
2023-03-12T16:34:29.651Z,90858.44
2023-03-12T16:36:56.735Z,90871.28
2023-03-12T16:39:23.899Z,90864.72
2023-03-12T16:41:50.627Z,90871.91
2023-03-12T16:44:21.452Z,90876.25
2023-03-12T16:46:48.407Z,90883.94
2023-03-12T16:49:19.691Z,90883.31
2023-03-12T16:51:47.883Z,90891.59
2023-03-12T16:54:14.615Z,90895.06
2023-03-12T16:56:45.030Z,90898.22
2023-03-12T16:59:33.327Z,90905.25
2023-03-12T17:01:59.956Z,90908.75
2023-03-12T17:04:26.701Z,90915.13
2023-03-12T17:06:53.415Z,90928.72
2023-03-12T17:09:20.091Z,90933.75
2023-03-12T17:11:51.324Z,90933.94
2023-03-12T17:14:22.263Z,90939.91
2023-03-12T17:16:49.903Z,90948.75
2023-03-12T17:19:16.865Z,90949.81
2023-03-12T17:21:44.368Z,90957.25
2023-03-12T17:24:14.110Z,90960.09
2023-03-12T17:26:41.611Z,90961.69
2023-03-12T17:29:09.108Z,90972.47
2023-03-12T17:31:37.588Z,90979.91
2023-03-12T17:34:04.688Z,90985.41
2023-03-12T17:36:31.631Z,90989.78
2023-03-12T17:38:58.332Z,91003.16
2023-03-12T17:41:26.971Z,91003.63
2023-03-12T17:43:55.421Z,91004.34
2023-03-12T17:46:22.185Z,91014.03
2023-03-12T17:48:48.981Z,91016.50
2023-03-12T17:51:17.313Z,91018.06
2023-03-12T17:53:44.247Z,91017.03
2023-03-12T17:56:12.729Z,91031.56
2023-03-12T17:58:39.575Z,91031.28
2023-03-12T18:01:06.206Z,91034.78
2023-03-12T18:03:33.214Z,91038.06
2023-03-12T18:05:59.886Z,91048.38
2023-03-12T18:08:26.563Z,91049.63
2023-03-12T18:10:53.306Z,91054.56
2023-03-12T18:13:20.040Z,91054.06
2023-03-12T18:15:54.062Z,91062.50
2023-03-12T18:18:21.177Z,91062.38
2023-03-12T18:20:49.089Z,91063.59
2023-03-12T18:23:16.819Z,91069.03
2023-03-12T18:25:44.163Z,91076.28
2023-03-12T18:28:10.853Z,91079.72
2023-03-12T18:30:37.628Z,91086.94
2023-03-12T18:33:04.281Z,91093.03
2023-03-12T18:35:30.973Z,91093.06
2023-03-12T18:37:58.382Z,91098.59
2023-03-12T18:40:25.740Z,91094.91
2023-03-12T18:42:52.384Z,91095.66
2023-03-12T18:45:19.092Z,91098.25
2023-03-12T18:47:50.168Z,91108.94
2023-03-12T18:50:17.519Z,91103.47
2023-03-12T18:52:44.309Z,91114.81
2023-03-12T18:55:15.319Z,91112.13
2023-03-12T18:57:43.164Z,91117.81
2023-03-12T19:00:15.515Z,91127.47
2023-03-12T19:02:42.525Z,91129.13
2023-03-12T19:05:11.105Z,91133.03
2023-03-12T19:07:39.184Z,91130.75
2023-03-12T19:10:07.608Z,91135.88
2023-03-12T19:12:45.412Z,91146.34
2023-03-12T19:15:17.625Z,91156.13
2023-03-12T19:17:44.355Z,91161.09
2023-03-12T19:20:11.971Z,91163.63
2023-03-12T19:22:38.677Z,91162.88
2023-03-12T19:25:05.954Z,91165.72
2023-03-12T19:27:33.971Z,91176.09
2023-03-12T19:30:01.005Z,91148.41
2023-03-12T19:32:33.348Z,91172.19
2023-03-12T19:35:11.006Z,91186.72
2023-03-12T19:37:37.850Z,91194.06
2023-03-12T19:40:05.961Z,91187.25
2023-03-12T19:42:33.148Z,91191.25
2023-03-12T19:45:00.067Z,91200.63
2023-03-12T19:47:26.861Z,91207.25
2023-03-12T19:50:03.750Z,91202.72
2023-03-12T19:52:30.455Z,91209.41
2023-03-12T19:55:04.747Z,91213.28
2023-03-12T19:57:32.308Z,91224.09
2023-03-12T19:59:59.158Z,91224.41
2023-03-12T20:02:26.539Z,91223.47
2023-03-12T20:04:55.458Z,91225.63
2023-03-12T20:07:22.343Z,91225.41
2023-03-12T20:09:49.230Z,91228.59
2023-03-12T20:12:16.001Z,91230.69
2023-03-12T20:14:43.983Z,91220.16
2023-03-12T20:17:12.263Z,91241.22
2023-03-12T20:19:39.577Z,91244.13
2023-03-12T20:22:06.899Z,91246.75
2023-03-12T20:24:33.686Z,91248.09
2023-03-12T20:27:00.619Z,91257.16
2023-03-12T20:29:27.554Z,91258.31
2023-03-12T20:31:54.292Z,91252.97
2023-03-12T20:34:21.126Z,91260.47
2023-03-12T20:36:48.044Z,91263.69
2023-03-12T20:39:14.850Z,91271.78
2023-03-12T20:41:41.624Z,91269.38
2023-03-12T20:44:08.504Z,91283.25
2023-03-12T20:46:35.192Z,91286.25
2023-03-12T20:49:02.324Z,91280.50
2023-03-12T20:51:29.072Z,91283.88
2023-03-12T20:53:55.720Z,91278.47
2023-03-12T20:56:22.531Z,91287.41
2023-03-12T20:58:49.235Z,91291.66
2023-03-12T21:01:16.338Z,91295.25
2023-03-12T21:03:43.093Z,91295.06
2023-03-12T21:06:09.705Z,91294.22
2023-03-12T21:08:46.362Z,91294.03
2023-03-12T21:11:13.093Z,91287.22
2023-03-12T21:13:39.916Z,91290.50
2023-03-12T21:16:08.026Z,91292.63
2023-03-12T21:18:35.316Z,91295.44
2023-03-12T21:21:06.348Z,91298.50
2023-03-12T21:23:33.646Z,91299.75
2023-03-12T21:26:02.516Z,91300.25
2023-03-12T21:28:29.892Z,91301.44
2023-03-12T21:31:07.584Z,91296.78
2023-03-12T21:33:35.215Z,91306.00
2023-03-12T21:36:05.734Z,91295.19
2023-03-12T21:38:32.441Z,91296.41
2023-03-12T21:41:05.203Z,91299.06
2023-03-12T21:43:31.885Z,91312.94
2023-03-12T21:46:05.035Z,91302.41
2023-03-12T21:48:31.886Z,91303.28
2023-03-12T21:51:09.455Z,91307.81
2023-03-12T21:53:37.315Z,91302.03
2023-03-12T21:56:05.955Z,91313.28
2023-03-12T21:58:33.950Z,91306.25
2023-03-12T22:01:13.621Z,91305.53
2023-03-12T22:03:41.863Z,91302.09
2023-03-12T22:06:10.157Z,91308.59
2023-03-12T22:08:37.381Z,91306.81
2023-03-12T22:11:05.203Z,91302.50
2023-03-12T22:13:32.180Z,91309.59
2023-03-12T22:16:01.577Z,91304.41
2023-03-12T22:18:29.080Z,91307.72
2023-03-12T22:20:59.897Z,91310.56
2023-03-12T22:23:26.588Z,91312.94
2023-03-12T22:25:53.580Z,91315.09
2023-03-12T22:28:20.958Z,91317.56
2023-03-12T22:30:48.252Z,91319.53
2023-03-12T22:33:14.986Z,91317.53
2023-03-12T22:35:46.178Z,91316.69
2023-03-12T22:38:13.078Z,91304.66
2023-03-12T22:40:40.501Z,91309.22
2023-03-12T22:43:07.307Z,91321.13
2023-03-12T22:45:34.051Z,91314.63
2023-03-12T22:48:00.811Z,91309.22
2023-03-12T22:50:28.269Z,91317.22
2023-03-12T22:52:54.994Z,91317.75
2023-03-12T22:55:21.684Z,91319.72
2023-03-12T22:57:48.651Z,91322.69
2023-03-12T23:00:18.918Z,91325.59
2023-03-12T23:02:45.666Z,91330.00
2023-03-12T23:05:12.376Z,91337.16
2023-03-12T23:07:39.052Z,91334.16
2023-03-12T23:10:06.763Z,91338.00
2023-03-12T23:12:34.867Z,91337.22
2023-03-12T23:15:01.740Z,91342.34
2023-03-12T23:17:28.384Z,91335.66
2023-03-12T23:19:55.028Z,91341.28
2023-03-12T23:22:21.779Z,91345.06
2023-03-12T23:24:48.510Z,91344.50
2023-03-12T23:27:15.263Z,91343.31
2023-03-12T23:29:42.038Z,91347.03
2023-03-12T23:32:08.767Z,91348.22
2023-03-12T23:34:35.484Z,91353.22
2023-03-12T23:37:02.355Z,91354.13
2023-03-12T23:39:30.251Z,91359.25
2023-03-12T23:41:57.753Z,91357.91
2023-03-12T23:44:24.932Z,91355.75
2023-03-12T23:46:51.642Z,91365.88
2023-03-12T23:49:18.443Z,91363.91
2023-03-12T23:51:45.866Z,91366.31
2023-03-12T23:54:12.581Z,91367.03
2023-03-12T23:56:41.097Z,91370.81
2023-03-12T23:59:10.487Z,91368.91
